Renovo, PA

2:57 PM EDT on October 23, 2014 (GMT -0400)
Wellsville Municipal-Tarantine | Change Station
CLOSE
Current Station
Airport
Location: Wellsville,
Elevation: 2123 ft
Nearby Weather Stations

Elev 2123 ft 42.11 °N, 77.98 °W | Updated 1 hour ago

Mostly Cloudy
Mostly Cloudy
54 °F
Feels Like 54 °F
N
17
Wind Variable Wind from NNW
Gusts 26 mph

Today
High -- | Low -- °F
--% Chance of Precip.
Yesterday
High -- | Low -- °F
Precip. -- in
7:31 AM 6:18 PM
Waning Crescent, 0% visible
Pressure 30.02 in
Visibility 10.0 miles
Clouds Overcast 4000 ft
Dew Point 38 °F
Humidity 55%
Rainfall 0.00 in
Snow Depth Not available.
UV 1 out of 12
Pollen .30 out of 12
Air Quality Not available.
Flu Activity Sporadic
METAR KELZ 231756Z AUTO 34015G23KT 10SM OVC040 12/03 A3000 RMK AO2 PK WND 34027/1730 SLP165 60000 T01220033 10122 20044 56015

More Conditions Fewer Conditions

Pressure 30.02 in
Visibility 10.0 miles
Clouds Overcast 4000 ft
Dew Point 38 °F
Humidity 55%
Rainfall 0.00 in
Snow Depth Not available.
UV 1 out of 12
Pollen .30 out of 12
Air Quality Not available.
Flu Activity Sporadic
METAR KELZ 231756Z AUTO 34015G23KT 10SM OVC040 12/03 A3000 RMK AO2 PK WND 34027/1730 SLP165 60000 T01220033 10122 20044 56015

More Conditions Fewer Conditions

10-Day Weather Forecast

Almanac

Astronomy

Oct. 23, 2014 Rise Set
Actual Time 7:31 AM EDT 6:18 PM EDT
Civil Twilight 7:03 AM EDT 6:46 PM EDT
Nautical Twilight 6:31 AM EDT 7:18 PM EDT
Astronomical Twilight 5:59 AM EDT 7:50 PM EDT
Moon 7:09 AM EDT 6:18 PM EDT
Length of Visible Light 11h 42m
Length of Day
10h 46m
Tomorrow will be 2m 34s shorter.
Waning Crescent, 0% of the Moon is Illuminated
Today
Waning Crescent
Oct 23
New
Oct 30
First Quarter
Nov 6
Full
Nov 14
Last Quarter

Today's Extremes

State Highs State Lows

Community

WunderPhotos

Upload Photos

1,764,339 photos uploaded!

WunderBlogs® & News

By Dr. Jeff Masters
Director of Meteorology, Weather Underground
By Kari Strenfel
Meteorologist, Weather Underground
By Christopher C. Burt
Weather Historian, Weather Underground
October 23, 2014
October 23, 2014
October 23, 2014

Nearby

Snow Depth

Station Depth Elevation
No new snow has been reported.

Earthquake Activity

City Distance Mag. Time & Date
No recent earthquake activity has been reported nearby.
Minimum magnitude displayed is 2.5.

Coastal Water Temperatures

Place Temperature
No Stations Reporting

Nearby Weather Stations